createdAt,value
2022-12-14T00:02:01.045Z,28.07
2022-12-14T00:05:07.717Z,31.15
2022-12-14T00:08:16.467Z,25.48
2022-12-14T00:11:28.330Z,21.62
2022-12-14T00:14:38.919Z,23.87
2022-12-14T00:17:50.270Z,25.50
2022-12-14T00:20:59.033Z,18.23
2022-12-14T00:24:09.925Z,20.02
2022-12-14T00:27:17.959Z,17.10
2022-12-14T00:30:28.894Z,19.82
2022-12-14T00:33:35.229Z,16.42
2022-12-14T00:36:45.229Z,13.20
2022-12-14T00:39:52.703Z,16.15
2022-12-14T00:43:01.111Z,15.23
2022-12-14T00:46:09.916Z,11.30
2022-12-14T00:49:16.939Z,13.13
2022-12-14T00:52:26.065Z,11.73
2022-12-14T00:55:32.663Z,12.15
2022-12-14T00:58:40.795Z,13.15
2022-12-14T01:01:51.875Z,10.38
2022-12-14T01:05:00.270Z,10.30
2022-12-14T01:08:07.851Z,10.03
2022-12-14T01:11:20.998Z,14.35
2022-12-14T01:14:34.587Z,11.50
2022-12-14T01:17:43.714Z,9.85
2022-12-14T01:20:53.983Z,9.95
2022-12-14T01:24:09.724Z,10.10
2022-12-14T01:27:20.358Z,8.53
2022-12-14T01:30:29.342Z,9.93
2022-12-14T01:33:37.243Z,8.78
2022-12-14T01:36:46.361Z,8.00
2022-12-14T01:39:52.656Z,7.78
2022-12-14T01:43:00.536Z,8.78
2022-12-14T01:46:11.503Z,10.28
2022-12-14T01:49:24.718Z,9.98
2022-12-14T01:52:37.792Z,8.50
2022-12-14T01:55:53.557Z,10.53
2022-12-14T01:59:05.316Z,8.53
2022-12-14T02:02:15.485Z,8.98
2022-12-14T02:05:23.407Z,10.95
2022-12-14T02:08:31.691Z,10.00
2022-12-14T02:11:58.717Z,11.57
2022-12-14T02:15:05.070Z,12.55
2022-12-14T02:18:22.212Z,11.18
2022-12-14T02:22:01.935Z,9.58
2022-12-14T02:25:50.979Z,12.70
2022-12-14T02:29:11.196Z,12.20
2022-12-14T02:33:11.121Z,14.25
2022-12-14T02:36:28.614Z,11.05
2022-12-14T02:40:09.329Z,12.28
2022-12-14T02:43:36.857Z,12.65
2022-12-14T02:46:57.283Z,15.72
2022-12-14T02:50:34.205Z,12.95
2022-12-14T02:53:48.683Z,12.15
2022-12-14T02:57:02.582Z,13.68
2022-12-14T03:00:14.171Z,16.57
2022-12-14T03:03:24.296Z,16.37
2022-12-14T03:06:35.037Z,15.88
2022-12-14T03:09:43.811Z,15.98
2022-12-14T03:12:46.411Z,18.65
2022-12-14T03:15:56.660Z,18.57
2022-12-14T03:19:12.609Z,17.82
2022-12-14T03:22:29.447Z,17.35
2022-12-14T03:25:44.382Z,14.47
2022-12-14T03:29:11.825Z,13.40
2022-12-14T03:32:25.899Z,17.50
2022-12-14T03:35:51.403Z,19.70
2022-12-14T03:39:05.700Z,14.87
2022-12-14T03:42:42.628Z,17.35
2022-12-14T03:46:10.601Z,16.95
2022-12-14T03:49:49.009Z,25.30
2022-12-14T03:53:29.547Z,27.93
2022-12-14T03:57:02.321Z,19.70
2022-12-14T04:00:28.432Z,17.85
2022-12-14T04:04:09.025Z,16.00
2022-12-14T04:07:35.361Z,21.48
2022-12-14T04:11:08.605Z,18.42
2022-12-14T04:14:51.495Z,17.65
2022-12-14T04:18:19.362Z,19.92
2022-12-14T04:21:58.967Z,20.60
2022-12-14T04:25:36.029Z,18.60
2022-12-14T04:29:10.727Z,14.78
2022-12-14T04:32:45.186Z,15.50
2022-12-14T04:35:59.849Z,25.62
2022-12-14T04:39:24.244Z,26.65
2022-12-14T04:42:40.752Z,24.63
2022-12-14T04:45:59.180Z,21.57
2022-12-14T04:49:42.993Z,20.17
2022-12-14T04:53:26.267Z,19.98
2022-12-14T04:57:17.401Z,17.82
2022-12-14T05:00:36.747Z,20.68
2022-12-14T05:04:14.534Z,17.62
2022-12-14T05:07:32.673Z,18.80
2022-12-14T05:11:04.740Z,17.55
2022-12-14T05:14:05.870Z,17.40
2022-12-14T05:17:12.806Z,19.30
2022-12-14T05:20:21.483Z,16.95
2022-12-14T05:23:31.293Z,18.80
2022-12-14T05:26:46.561Z,16.10
2022-12-14T05:29:55.063Z,18.77
2022-12-14T05:33:07.118Z,17.62
2022-12-14T05:36:18.308Z,17.50
2022-12-14T05:39:34.449Z,21.57
2022-12-14T05:42:48.699Z,20.15
2022-12-14T05:45:54.972Z,18.12
2022-12-14T05:49:19.632Z,17.92
2022-12-14T05:52:31.443Z,20.17
2022-12-14T05:56:18.666Z,25.68
2022-12-14T05:59:31.494Z,16.95
2022-12-14T06:02:38.833Z,19.20
2022-12-14T06:05:44.764Z,18.10
2022-12-14T06:09:24.379Z,21.65
2022-12-14T06:13:03.742Z,21.80
2022-12-14T06:16:28.902Z,22.15
2022-12-14T06:20:01.486Z,18.15
2022-12-14T06:23:14.419Z,21.52
2022-12-14T06:26:33.220Z,21.17
2022-12-14T06:33:25.580Z,19.48
2022-12-14T06:36:42.319Z,20.10
2022-12-14T06:40:09.089Z,24.65
2022-12-14T06:43:23.690Z,23.95
2022-12-14T06:46:44.225Z,26.17
2022-12-14T06:49:51.267Z,23.30
2022-12-14T06:53:14.090Z,27.85
2022-12-14T06:56:34.489Z,33.23
2022-12-14T06:59:55.318Z,38.08
2022-12-14T07:03:08.789Z,62.33
2022-12-14T07:06:41.607Z,45.40
2022-12-14T07:09:53.472Z,29.87
2022-12-14T07:13:10.632Z,34.03
2022-12-14T07:16:34.701Z,27.52
2022-12-14T07:19:52.573Z,28.70
2022-12-14T07:23:08.089Z,30.80
2022-12-14T07:29:51.885Z,31.45
2022-12-14T07:33:12.023Z,31.07
2022-12-14T07:36:43.371Z,28.15
2022-12-14T07:39:56.025Z,38.83
2022-12-14T07:43:24.211Z,45.07
2022-12-14T07:46:47.446Z,39.80
2022-12-14T07:50:00.544Z,28.52
2022-12-14T07:53:31.167Z,37.60
2022-12-14T07:56:44.604Z,27.32
2022-12-14T07:59:58.441Z,37.63
2022-12-14T08:03:16.352Z,34.95
2022-12-14T08:06:40.906Z,26.73
2022-12-14T08:13:44.641Z,36.55
2022-12-14T08:17:06.795Z,39.08
2022-12-14T08:20:22.964Z,43.52
2022-12-14T08:23:37.205Z,38.33
2022-12-14T08:30:27.093Z,36.42
2022-12-14T08:33:45.490Z,37.93
2022-12-14T08:37:00.914Z,31.65
2022-12-14T08:40:14.202Z,32.83
2022-12-14T08:43:35.249Z,33.05
2022-12-14T08:46:56.797Z,28.92
2022-12-14T08:50:12.531Z,30.40
2022-12-14T08:53:23.752Z,28.55
2022-12-14T08:56:35.519Z,31.40
2022-12-14T09:00:02.582Z,32.40
2022-12-14T09:03:20.219Z,30.70
2022-12-14T09:06:42.172Z,30.82
2022-12-14T09:09:53.046Z,30.23
2022-12-14T09:13:04.397Z,28.70
2022-12-14T09:16:32.026Z,32.23
2022-12-14T09:19:52.438Z,29.07
2022-12-14T09:23:09.943Z,30.45
2022-12-14T09:26:31.264Z,33.02
2022-12-14T09:29:59.087Z,28.98
2022-12-14T09:33:06.979Z,28.27
2022-12-14T09:36:28.576Z,41.45
2022-12-14T09:39:48.804Z,30.95
2022-12-14T09:43:18.983Z,28.50
2022-12-14T09:46:56.456Z,28.35
2022-12-14T09:50:34.307Z,31.70
2022-12-14T09:53:47.047Z,29.07
2022-12-14T09:57:03.429Z,33.18
2022-12-14T10:00:22.424Z,34.58
2022-12-14T10:03:41.969Z,31.12
2022-12-14T10:07:34.340Z,29.85
2022-12-14T10:25:38.382Z,32.78
2022-12-14T10:29:12.130Z,24.72
2022-12-14T10:36:58.708Z,26.97
2022-12-14T10:40:41.106Z,27.42
2022-12-14T10:44:37.052Z,28.77
2022-12-14T10:48:04.313Z,26.75
2022-12-14T10:51:25.885Z,27.48
2022-12-14T10:55:05.283Z,26.25
2022-12-14T10:58:19.922Z,32.13
2022-12-14T11:01:36.613Z,26.95
2022-12-14T11:05:22.139Z,39.88
2022-12-14T11:09:02.120Z,31.80
2022-12-14T11:12:36.154Z,34.53
2022-12-14T11:16:05.928Z,28.45
2022-12-14T11:23:34.565Z,28.38
2022-12-14T11:26:57.785Z,30.70
2022-12-14T11:31:02.268Z,29.10
2022-12-14T11:34:31.624Z,29.65
2022-12-14T11:37:45.426Z,30.72
2022-12-14T11:41:00.975Z,30.97
2022-12-14T11:48:50.713Z,28.45
2022-12-14T11:52:32.178Z,30.87
2022-12-14T11:55:44.770Z,43.15
2022-12-14T11:59:06.818Z,31.17
2022-12-14T12:03:16.870Z,26.52
2022-12-14T12:06:32.707Z,29.50
2022-12-14T12:09:55.953Z,29.35
2022-12-14T12:13:21.451Z,25.80
2022-12-14T12:16:39.880Z,30.37
2022-12-14T12:19:50.442Z,32.38
2022-12-14T12:23:14.505Z,33.92
2022-12-14T12:26:51.400Z,43.48
2022-12-14T12:30:10.392Z,41.45
2022-12-14T12:33:41.473Z,55.43
2022-12-14T12:37:25.429Z,78.73
2022-12-14T12:41:05.699Z,78.67
2022-12-14T12:48:22.171Z,43.92
2022-12-14T12:55:57.006Z,34.92
2022-12-14T12:59:17.858Z,32.73
2022-12-14T13:02:54.837Z,37.67
2022-12-14T13:06:10.209Z,33.92
2022-12-14T13:10:01.888Z,37.78
2022-12-14T13:13:20.286Z,58.70
2022-12-14T13:17:01.716Z,33.13
2022-12-14T13:21:23.823Z,34.43
2022-12-14T13:24:35.879Z,40.80
2022-12-14T13:28:36.391Z,52.88
2022-12-14T13:32:35.449Z,60.15
2022-12-14T13:36:51.753Z,67.42
2022-12-14T13:40:41.381Z,80.12
2022-12-14T13:44:44.200Z,87.25
2022-12-14T13:48:13.458Z,80.38
2022-12-14T13:51:41.917Z,80.75
2022-12-14T13:55:00.830Z,65.78
2022-12-14T13:58:34.589Z,61.37
2022-12-14T14:02:14.377Z,48.73
2022-12-14T14:05:49.593Z,37.73
2022-12-14T14:09:15.391Z,31.70
2022-12-14T14:12:48.846Z,34.83
2022-12-14T14:16:28.549Z,35.35
2022-12-14T14:19:49.372Z,32.65
2022-12-14T14:23:12.316Z,32.67
2022-12-14T14:26:59.180Z,36.83
2022-12-14T14:30:11.275Z,40.65
2022-12-14T14:34:12.589Z,35.85
2022-12-14T14:37:35.015Z,42.15
2022-12-14T14:41:18.147Z,41.53
2022-12-14T14:44:39.219Z,37.88
2022-12-14T14:48:02.222Z,37.75
2022-12-14T14:51:42.580Z,37.88
2022-12-14T14:55:21.774Z,38.92
2022-12-14T14:58:29.056Z,41.42
2022-12-14T15:01:49.547Z,44.05
2022-12-14T15:12:48.495Z,35.15
2022-12-14T15:16:06.768Z,37.03
2022-12-14T15:19:47.445Z,42.25
2022-12-14T15:22:58.339Z,41.05
2022-12-14T15:26:21.111Z,36.00
2022-12-14T15:33:18.845Z,36.73
2022-12-14T15:36:34.967Z,36.45
2022-12-14T15:39:52.295Z,39.48
2022-12-14T15:43:13.031Z,46.20
2022-12-14T15:46:37.201Z,57.58
2022-12-14T15:49:45.560Z,60.73
2022-12-14T15:53:03.778Z,65.35
2022-12-14T15:56:13.306Z,59.48
2022-12-14T15:59:40.630Z,60.15
2022-12-14T16:02:54.118Z,67.97
2022-12-14T16:06:12.865Z,69.67
2022-12-14T16:09:39.009Z,58.85
2022-12-14T16:12:59.669Z,51.50
2022-12-14T16:16:09.307Z,48.90
2022-12-14T16:19:28.690Z,63.65
2022-12-14T16:22:43.070Z,88.22
2022-12-14T16:26:18.837Z,80.15
2022-12-14T16:29:48.070Z,65.80
2022-12-14T16:32:59.599Z,59.33
2022-12-14T16:36:28.040Z,60.63
2022-12-14T16:39:42.061Z,62.43
2022-12-14T16:43:08.028Z,60.83
2022-12-14T16:46:25.119Z,60.75
2022-12-14T16:49:47.045Z,56.95
2022-12-14T16:53:04.164Z,52.25
2022-12-14T16:56:26.380Z,61.73
2022-12-14T17:02:55.581Z,60.33
2022-12-14T17:06:13.637Z,69.07
2022-12-14T17:09:29.029Z,68.07
2022-12-14T17:12:53.484Z,73.10
2022-12-14T17:16:21.259Z,69.92
2022-12-14T17:19:35.873Z,66.82
2022-12-14T17:22:49.925Z,74.12
2022-12-14T17:26:11.028Z,64.75
2022-12-14T17:29:24.326Z,63.68
2022-12-14T17:35:58.030Z,83.25
2022-12-14T17:39:09.329Z,79.15
2022-12-14T17:42:19.113Z,75.40
2022-12-14T17:45:46.216Z,67.62
2022-12-14T17:49:06.599Z,73.72
2022-12-14T17:52:18.701Z,74.60
2022-12-14T17:55:38.588Z,74.30
2022-12-14T17:58:47.926Z,74.45
2022-12-14T18:02:00.506Z,82.12
2022-12-14T18:05:14.728Z,74.40
2022-12-14T18:08:33.662Z,70.70
2022-12-14T18:12:14.380Z,64.32
2022-12-14T18:15:12.868Z,62.33
2022-12-14T18:18:39.600Z,61.42
2022-12-14T18:21:56.585Z,65.12
2022-12-14T18:25:09.007Z,65.12
2022-12-14T18:28:22.026Z,65.45
2022-12-14T18:31:40.196Z,63.75
2022-12-14T18:34:53.707Z,59.13
2022-12-14T18:38:01.560Z,57.90
2022-12-14T18:41:13.401Z,58.58
2022-12-14T18:44:24.147Z,64.85
2022-12-14T18:47:42.794Z,78.10
2022-12-14T18:50:56.501Z,111.85
2022-12-14T18:54:17.213Z,118.65
2022-12-14T18:57:31.303Z,113.22
2022-12-14T19:00:45.116Z,86.37
2022-12-14T19:03:59.241Z,80.30
2022-12-14T19:07:08.879Z,68.45
2022-12-14T19:10:29.469Z,57.00
2022-12-14T19:13:54.543Z,49.85
2022-12-14T19:17:18.028Z,48.33
2022-12-14T19:20:39.554Z,55.98
2022-12-14T19:23:59.600Z,58.90
2022-12-14T19:27:15.535Z,70.87
2022-12-14T19:30:25.531Z,83.03
2022-12-14T19:33:43.632Z,65.72
2022-12-14T19:36:57.098Z,53.08
2022-12-14T19:40:13.827Z,44.93
2022-12-14T19:43:24.744Z,40.92
2022-12-14T19:46:34.376Z,36.40
2022-12-14T19:49:48.837Z,39.18
2022-12-14T19:53:11.349Z,40.33
2022-12-14T19:56:25.523Z,38.28
2022-12-14T19:59:44.047Z,45.28
2022-12-14T20:03:01.654Z,42.58
2022-12-14T20:06:23.925Z,39.23
2022-12-14T20:09:42.931Z,38.98
2022-12-14T20:12:52.644Z,46.37
2022-12-14T20:16:09.290Z,35.88
2022-12-14T20:19:31.834Z,38.33
2022-12-14T20:22:44.015Z,38.90
2022-12-14T20:25:55.764Z,43.87
2022-12-14T20:29:23.357Z,41.25
2022-12-14T20:32:35.367Z,37.08
2022-12-14T20:35:48.015Z,38.15
2022-12-14T20:39:00.535Z,45.55
2022-12-14T20:42:14.935Z,40.55
2022-12-14T20:45:34.351Z,37.98
2022-12-14T20:48:56.599Z,34.83
2022-12-14T20:52:13.290Z,40.38
2022-12-14T20:55:23.648Z,38.02
2022-12-14T20:59:10.167Z,41.73
2022-12-14T21:02:47.435Z,42.43
2022-12-14T21:06:13.871Z,36.20
2022-12-14T21:09:46.259Z,34.63
2022-12-14T21:13:07.756Z,38.15
2022-12-14T21:16:44.269Z,38.83
